createdAt,value
2022-11-27T00:00:41.302Z,968.70
2022-11-27T00:01:41.258Z,968.71
2022-11-27T00:02:41.407Z,968.71
2022-11-27T00:03:41.340Z,968.68
2022-11-27T00:04:41.771Z,968.64
2022-11-27T00:05:41.219Z,968.67
2022-11-27T00:06:41.275Z,968.67
2022-11-27T00:07:41.318Z,968.66
2022-11-27T00:08:41.149Z,968.66
2022-11-27T00:09:41.395Z,968.67
2022-11-27T00:10:41.262Z,968.61
2022-11-27T00:11:41.127Z,968.63
2022-11-27T00:12:41.090Z,968.64
2022-11-27T00:13:41.199Z,968.64
2022-11-27T00:14:41.067Z,968.62
2022-11-27T00:15:41.224Z,968.61
2022-11-27T00:16:41.151Z,968.66
2022-11-27T00:17:41.029Z,968.63
2022-11-27T00:18:41.009Z,968.60
2022-11-27T00:19:41.453Z,968.63
2022-11-27T00:20:40.987Z,968.63
2022-11-27T00:21:40.994Z,968.60
2022-11-27T00:22:41.556Z,968.62
2022-11-27T00:23:41.058Z,968.60
2022-11-27T00:24:41.105Z,968.64
2022-11-27T00:25:40.944Z,968.64
2022-11-27T00:26:40.906Z,968.55
2022-11-27T00:27:40.959Z,968.57
2022-11-27T00:28:41.116Z,968.49
2022-11-27T00:29:40.903Z,968.46
2022-11-27T00:30:40.851Z,968.49
2022-11-27T00:31:40.894Z,968.46
2022-11-27T00:32:40.817Z,968.45
2022-11-27T00:33:40.848Z,968.37
2022-11-27T00:34:41.271Z,968.41
2022-11-27T00:35:40.783Z,968.40
2022-11-27T00:36:43.994Z,968.34
2022-11-27T00:37:41.785Z,968.34
2022-11-27T00:38:40.713Z,968.36
2022-11-27T00:39:40.760Z,968.35
2022-11-27T00:40:41.191Z,968.35
2022-11-27T00:41:40.911Z,968.37
2022-11-27T00:42:40.660Z,968.39
2022-11-27T00:43:44.551Z,968.36
2022-11-27T00:44:40.788Z,968.40
2022-11-27T00:45:41.399Z,968.39
2022-11-27T00:46:40.900Z,968.37
2022-11-27T00:47:40.631Z,968.41
2022-11-27T00:48:40.605Z,968.41
2022-11-27T00:49:40.592Z,968.40
2022-11-27T00:50:40.561Z,968.36
2022-11-27T00:51:40.572Z,968.37
2022-11-27T00:52:40.650Z,968.33
2022-11-27T00:53:40.533Z,968.31
2022-11-27T00:54:40.863Z,968.28
2022-11-27T00:55:40.497Z,968.32
2022-11-27T00:56:40.850Z,968.30
2022-11-27T00:57:40.474Z,968.28
2022-11-27T00:58:40.992Z,968.26
2022-11-27T00:59:40.452Z,968.24
2022-11-27T01:00:40.408Z,968.22
2022-11-27T01:01:40.508Z,968.26
2022-11-27T01:02:40.417Z,968.22
2022-11-27T01:03:40.629Z,968.22
2022-11-27T01:04:41.193Z,968.20
2022-11-27T01:05:40.360Z,968.22
2022-11-27T01:06:40.321Z,968.21
2022-11-27T01:07:40.547Z,968.21
2022-11-27T01:08:40.326Z,968.16
2022-11-27T01:09:40.308Z,968.20
2022-11-27T01:10:40.451Z,968.14
2022-11-27T01:11:40.336Z,968.11
2022-11-27T01:12:40.260Z,968.11
2022-11-27T01:13:40.255Z,968.13
2022-11-27T01:14:40.457Z,968.08
2022-11-27T01:15:40.244Z,968.12
2022-11-27T01:16:43.178Z,968.10
2022-11-27T01:17:40.204Z,968.12
2022-11-27T01:18:40.164Z,968.10
2022-11-27T01:19:40.179Z,968.09
2022-11-27T01:20:40.123Z,968.10
2022-11-27T01:21:40.138Z,968.11
2022-11-27T01:22:41.216Z,968.12
2022-11-27T01:23:40.125Z,968.14
2022-11-27T01:24:40.259Z,968.15
2022-11-27T01:25:40.085Z,968.09
2022-11-27T01:26:40.067Z,968.06
2022-11-27T01:27:40.052Z,968.10
2022-11-27T01:28:40.209Z,968.04
2022-11-27T01:29:40.038Z,968.03
2022-11-27T01:30:39.983Z,968.00
2022-11-27T01:31:40.062Z,968.02
2022-11-27T01:32:39.992Z,968.02
2022-11-27T01:33:39.984Z,968.00
2022-11-27T01:34:40.244Z,968.01
2022-11-27T01:35:39.944Z,968.00
2022-11-27T01:36:39.894Z,967.96
2022-11-27T01:37:39.928Z,967.98
2022-11-27T01:38:39.866Z,967.96
2022-11-27T01:39:39.898Z,967.93
2022-11-27T01:40:40.059Z,967.91
2022-11-27T01:41:39.932Z,967.88
2022-11-27T01:42:39.818Z,967.84
2022-11-27T01:43:39.856Z,967.74
2022-11-27T01:44:40.067Z,967.75
2022-11-27T01:45:39.813Z,967.65
2022-11-27T01:46:40.051Z,967.61
2022-11-27T01:47:39.791Z,967.63
2022-11-27T01:48:39.744Z,967.63
2022-11-27T01:49:39.753Z,967.66
2022-11-27T01:50:39.712Z,967.63
2022-11-27T01:51:39.728Z,967.61
2022-11-27T01:52:40.103Z,967.67
2022-11-27T01:53:39.697Z,967.63
2022-11-27T01:54:39.903Z,967.54
2022-11-27T01:55:39.679Z,967.51
2022-11-27T01:56:39.632Z,967.50
2022-11-27T01:57:39.643Z,967.51
2022-11-27T01:58:39.761Z,967.57
2022-11-27T01:59:39.603Z,967.46
2022-11-27T02:00:39.585Z,967.52
2022-11-27T02:01:39.789Z,967.53
2022-11-27T02:02:39.587Z,967.54
2022-11-27T02:03:39.548Z,967.55
2022-11-27T02:04:39.901Z,967.59
2022-11-27T02:05:39.537Z,967.58
2022-11-27T02:06:39.496Z,967.56
2022-11-27T02:07:39.571Z,967.59
2022-11-27T02:08:39.462Z,967.58
2022-11-27T02:09:39.479Z,967.60
2022-11-27T02:10:39.583Z,967.60
2022-11-27T02:11:39.489Z,967.58
2022-11-27T02:12:39.417Z,967.55
2022-11-27T02:13:39.431Z,967.53
2022-11-27T02:14:39.734Z,967.50
2022-11-27T02:15:39.480Z,967.49
2022-11-27T02:16:39.575Z,967.43
2022-11-27T02:17:39.379Z,967.40
2022-11-27T02:18:39.320Z,967.38
2022-11-27T02:19:39.342Z,967.37
2022-11-27T02:20:40.172Z,967.34
2022-11-27T02:21:39.311Z,967.36
2022-11-27T02:22:39.471Z,967.36
2022-11-27T02:23:39.286Z,967.34
2022-11-27T02:24:39.505Z,967.34
2022-11-27T02:25:39.257Z,967.36
2022-11-27T02:26:39.218Z,967.33
2022-11-27T02:27:39.218Z,967.35
2022-11-27T02:28:39.385Z,967.35
2022-11-27T02:29:39.201Z,967.37
2022-11-27T02:30:39.151Z,967.39
2022-11-27T02:31:39.267Z,967.40
2022-11-27T02:32:39.150Z,967.39
2022-11-27T02:33:39.124Z,967.37
2022-11-27T02:34:39.527Z,967.41
2022-11-27T02:35:39.122Z,967.37
2022-11-27T02:36:39.071Z,967.34
2022-11-27T02:37:39.112Z,967.43
2022-11-27T02:38:39.044Z,967.41
2022-11-27T02:39:39.056Z,967.41
2022-11-27T02:40:39.153Z,967.47
2022-11-27T02:41:39.024Z,967.46
2022-11-27T02:42:38.979Z,967.44
2022-11-27T02:43:38.994Z,967.44
2022-11-27T02:44:39.200Z,967.41
2022-11-27T02:45:38.989Z,967.40
2022-11-27T02:46:39.721Z,967.40
2022-11-27T02:47:38.970Z,967.38
2022-11-27T02:48:38.904Z,967.40
2022-11-27T02:49:38.945Z,967.41
2022-11-27T02:50:38.867Z,967.45
2022-11-27T02:51:38.890Z,967.39
2022-11-27T02:52:39.378Z,967.38
2022-11-27T02:53:38.877Z,967.36
2022-11-27T02:54:39.057Z,967.30
2022-11-27T02:55:38.852Z,967.32
2022-11-27T02:56:38.783Z,967.28
2022-11-27T02:57:38.823Z,967.28
2022-11-27T02:58:39.009Z,967.25
2022-11-27T02:59:38.778Z,967.25
2022-11-27T03:00:38.725Z,967.26
2022-11-27T03:01:38.846Z,967.25
2022-11-27T03:02:38.757Z,967.25
2022-11-27T03:03:38.705Z,967.18
2022-11-27T03:04:39.162Z,967.17
2022-11-27T03:05:38.653Z,967.18
2022-11-27T03:06:38.687Z,967.18
2022-11-27T03:07:38.684Z,967.18
2022-11-27T03:08:38.642Z,967.15
2022-11-27T03:09:38.608Z,967.14
2022-11-27T03:10:38.750Z,967.16
2022-11-27T03:11:38.563Z,967.11
2022-11-27T03:12:38.673Z,967.13
2022-11-27T03:13:38.568Z,967.11
2022-11-27T03:14:38.886Z,967.19
2022-11-27T03:15:38.567Z,967.15
2022-11-27T03:16:38.665Z,967.12
2022-11-27T03:17:38.490Z,967.11
2022-11-27T03:18:38.500Z,967.10
2022-11-27T03:19:38.509Z,967.12
2022-11-27T03:20:38.471Z,967.09
2022-11-27T03:21:38.441Z,967.01
2022-11-27T03:22:38.641Z,967.00
2022-11-27T03:23:38.441Z,967.02
2022-11-27T03:24:38.595Z,967.03
2022-11-27T03:25:38.377Z,967.08
2022-11-27T03:26:38.406Z,967.07
2022-11-27T03:27:38.348Z,967.10
2022-11-27T03:28:38.511Z,967.03
2022-11-27T03:29:38.315Z,967.11
2022-11-27T03:30:38.331Z,967.09
2022-11-27T03:31:38.368Z,967.12
2022-11-27T03:32:38.308Z,967.09
2022-11-27T03:33:38.290Z,967.10
2022-11-27T03:34:38.637Z,967.11
2022-11-27T03:35:38.239Z,967.10
2022-11-27T03:36:38.305Z,967.14
2022-11-27T03:37:38.212Z,967.15
2022-11-27T03:38:38.232Z,967.13
2022-11-27T03:39:38.186Z,967.10
2022-11-27T03:40:38.295Z,967.09
2022-11-27T03:41:38.164Z,967.09
2022-11-27T03:42:38.167Z,967.10
2022-11-27T03:43:38.134Z,967.09
2022-11-27T03:44:38.480Z,967.08
2022-11-27T03:45:38.093Z,967.08
2022-11-27T03:46:38.300Z,967.07
2022-11-27T03:47:38.122Z,967.07
2022-11-27T03:48:38.090Z,967.15
2022-11-27T03:49:38.052Z,967.14
2022-11-27T03:50:38.068Z,967.16
2022-11-27T03:51:38.009Z,967.12
2022-11-27T03:52:38.215Z,967.14
2022-11-27T03:53:37.986Z,967.16
2022-11-27T03:54:38.187Z,967.15
2022-11-27T03:55:37.961Z,967.16
2022-11-27T03:56:37.960Z,967.14
2022-11-27T03:57:37.923Z,967.14
2022-11-27T03:58:38.195Z,967.14
2022-11-27T03:59:37.904Z,967.15
2022-11-27T04:00:37.901Z,967.13
2022-11-27T04:01:37.936Z,967.10
2022-11-27T04:02:37.890Z,967.14
2022-11-27T04:03:37.893Z,967.14
2022-11-27T04:04:38.307Z,967.17
2022-11-27T04:05:37.824Z,967.12
2022-11-27T04:06:37.848Z,967.11
2022-11-27T04:07:37.880Z,967.09
2022-11-27T04:08:37.810Z,967.06
2022-11-27T04:09:37.807Z,967.05
2022-11-27T04:10:37.968Z,967.07
2022-11-27T04:11:37.742Z,967.04
2022-11-27T04:12:37.790Z,967.04
2022-11-27T04:13:37.715Z,967.03
2022-11-27T04:14:37.849Z,967.07
2022-11-27T04:15:37.685Z,967.04
2022-11-27T04:16:37.932Z,966.96
2022-11-27T04:17:37.665Z,967.03
2022-11-27T04:18:37.660Z,966.94
2022-11-27T04:19:37.646Z,966.90
2022-11-27T04:20:37.622Z,966.98
2022-11-27T04:21:38.623Z,966.98
2022-11-27T04:22:37.801Z,966.96
2022-11-27T04:23:37.591Z,966.92
2022-11-27T04:24:37.695Z,966.95
2022-11-27T04:25:37.532Z,966.96
2022-11-27T04:26:37.552Z,966.99
2022-11-27T04:27:37.660Z,966.99
2022-11-27T04:28:37.573Z,967.00
2022-11-27T04:29:37.485Z,966.98
2022-11-27T04:30:37.492Z,966.92
2022-11-27T04:31:37.524Z,966.89
2022-11-27T04:32:37.480Z,966.89
2022-11-27T04:33:37.578Z,966.91
2022-11-27T04:34:37.669Z,966.94
2022-11-27T04:35:37.415Z,966.95
2022-11-27T04:36:39.422Z,966.91
2022-11-27T04:37:37.390Z,966.94
2022-11-27T04:38:37.414Z,966.96
2022-11-27T04:39:37.480Z,966.95
2022-11-27T04:40:37.406Z,966.88
2022-11-27T04:41:37.336Z,966.95
2022-11-27T04:42:37.328Z,966.91
2022-11-27T04:43:37.318Z,966.97
2022-11-27T04:44:37.421Z,966.94
2022-11-27T04:45:37.452Z,966.96
2022-11-27T04:46:37.343Z,966.94
2022-11-27T04:47:37.237Z,966.95
2022-11-27T04:48:37.268Z,967.00
2022-11-27T04:49:37.206Z,966.97
2022-11-27T04:50:37.214Z,967.00
2022-11-27T04:51:37.351Z,967.02
2022-11-27T04:52:37.208Z,967.02
2022-11-27T04:53:37.148Z,967.12
2022-11-27T04:54:37.151Z,967.11
2022-11-27T04:55:37.153Z,967.08
2022-11-27T04:56:37.211Z,967.09
2022-11-27T04:57:37.256Z,967.09
2022-11-27T04:58:37.119Z,967.07
2022-11-27T04:59:37.074Z,967.09
2022-11-27T05:00:37.123Z,967.12
2022-11-27T05:01:37.054Z,967.15
2022-11-27T05:02:37.097Z,967.18
2022-11-27T05:03:37.168Z,967.20
2022-11-27T05:04:37.105Z,967.19
2022-11-27T05:05:36.986Z,967.21
2022-11-27T05:06:36.992Z,967.15
2022-11-27T05:07:37.034Z,967.13
2022-11-27T05:08:36.974Z,967.13
2022-11-27T05:09:37.068Z,967.12
2022-11-27T05:10:36.966Z,967.13
2022-11-27T05:11:36.891Z,967.12
2022-11-27T05:12:36.929Z,967.12
2022-11-27T05:13:36.888Z,967.14
2022-11-27T05:14:36.963Z,967.17
2022-11-27T05:15:36.925Z,967.18
2022-11-27T05:16:36.969Z,967.16
2022-11-27T05:17:36.832Z,967.16
2022-11-27T05:18:36.826Z,967.17
2022-11-27T05:19:36.780Z,967.20
2022-11-27T05:20:36.799Z,967.18
2022-11-27T05:21:36.874Z,967.17
2022-11-27T05:22:36.854Z,967.12
2022-11-27T05:23:36.723Z,967.07
2022-11-27T05:24:36.734Z,967.06
2022-11-27T05:25:36.698Z,967.02
2022-11-27T05:26:36.718Z,967.01
2022-11-27T05:27:36.792Z,966.96
2022-11-27T05:28:36.724Z,966.96
2022-11-27T05:29:36.655Z,966.97
2022-11-27T05:30:36.653Z,967.03
2022-11-27T05:31:36.718Z,967.00
2022-11-27T05:32:36.659Z,967.05
2022-11-27T05:33:36.786Z,967.01
2022-11-27T05:34:36.642Z,966.96
2022-11-27T05:35:36.611Z,966.96
2022-11-27T05:36:36.570Z,966.94
2022-11-27T05:37:36.607Z,966.92
2022-11-27T05:38:36.550Z,966.92
2022-11-27T05:39:36.648Z,966.88
2022-11-27T05:40:36.583Z,966.86
2022-11-27T05:41:36.486Z,966.85
2022-11-27T05:42:36.519Z,966.89
2022-11-27T05:43:36.555Z,966.83
2022-11-27T05:44:36.523Z,966.89
2022-11-27T05:45:36.616Z,966.83
2022-11-27T05:46:36.571Z,966.85
2022-11-27T05:47:36.468Z,966.77
2022-11-27T05:48:36.452Z,966.80
2022-11-27T05:49:36.444Z,966.79
2022-11-27T05:50:36.441Z,966.80
2022-11-27T05:51:36.499Z,966.79
2022-11-27T05:52:36.442Z,966.76
2022-11-27T05:53:36.347Z,966.80
2022-11-27T05:54:36.337Z,966.78
2022-11-27T05:55:36.343Z,966.77
2022-11-27T05:56:36.470Z,966.80
2022-11-27T05:57:36.426Z,966.80
2022-11-27T05:58:36.345Z,966.81
2022-11-27T05:59:36.211Z,966.81
2022-11-27T06:00:36.242Z,966.82
2022-11-27T06:01:36.271Z,966.91
2022-11-27T06:02:36.303Z,966.87
2022-11-27T06:03:36.747Z,966.88
2022-11-27T06:04:36.319Z,966.91
2022-11-27T06:05:36.164Z,966.92
2022-11-27T06:06:36.153Z,966.94
2022-11-27T06:07:36.229Z,966.92
2022-11-27T06:08:36.141Z,966.97
2022-11-27T06:09:36.319Z,966.95
2022-11-27T06:10:36.338Z,966.96
2022-11-27T06:11:36.064Z,966.95
2022-11-27T06:12:36.067Z,967.01
2022-11-27T06:13:36.027Z,967.03
2022-11-27T06:14:36.047Z,967.02
2022-11-27T06:15:36.139Z,967.00
2022-11-27T06:16:36.159Z,966.99
2022-11-27T06:17:35.978Z,966.97
2022-11-27T06:18:35.980Z,966.98
2022-11-27T06:19:35.955Z,966.98
2022-11-27T06:20:39.557Z,967.00
2022-11-27T06:21:37.082Z,967.07
2022-11-27T06:22:35.944Z,967.09
2022-11-27T06:23:35.953Z,967.08
2022-11-27T06:24:35.915Z,967.04
2022-11-27T06:25:35.865Z,967.03
2022-11-27T06:26:35.900Z,967.02
2022-11-27T06:27:35.994Z,967.05
2022-11-27T06:28:35.848Z,967.05
2022-11-27T06:29:35.954Z,967.06
2022-11-27T06:30:35.826Z,967.00
2022-11-27T06:31:35.832Z,967.02
2022-11-27T06:32:35.797Z,967.02
2022-11-27T06:33:36.628Z,967.00
2022-11-27T06:34:35.759Z,966.98
2022-11-27T06:35:35.906Z,967.02
2022-11-27T06:36:35.731Z,967.02
2022-11-27T06:37:35.690Z,966.99
2022-11-27T06:38:35.714Z,966.96
2022-11-27T06:39:35.702Z,967.01
2022-11-27T06:40:35.665Z,966.98
2022-11-27T06:41:35.801Z,966.95
2022-11-27T06:42:35.655Z,966.96
2022-11-27T06:43:35.608Z,966.98
2022-11-27T06:44:35.617Z,966.96
2022-11-27T06:45:35.655Z,966.96
2022-11-27T06:46:35.587Z,967.01
2022-11-27T06:47:35.651Z,966.99
2022-11-27T06:48:35.568Z,966.97
2022-11-27T06:49:35.518Z,966.95
2022-11-27T06:50:35.532Z,966.91
2022-11-27T06:51:35.550Z,966.90
2022-11-27T06:52:40.188Z,966.92
2022-11-27T06:53:36.545Z,966.90
2022-11-27T06:54:35.485Z,966.88
2022-11-27T06:55:36.416Z,966.90
2022-11-27T06:56:35.443Z,966.82
2022-11-27T06:57:35.439Z,966.84
2022-11-27T06:58:35.432Z,966.77
2022-11-27T06:59:35.520Z,966.75
2022-11-27T07:00:35.471Z,966.75
2022-11-27T07:01:35.403Z,966.74
2022-11-27T07:02:35.423Z,966.72
2022-11-27T07:03:35.347Z,966.79
2022-11-27T07:04:35.325Z,966.75
2022-11-27T07:05:35.433Z,966.76
2022-11-27T07:06:35.313Z,966.75
2022-11-27T07:07:37.585Z,966.66
2022-11-27T07:08:36.336Z,966.71
2022-11-27T07:09:35.250Z,966.67
2022-11-27T07:10:35.259Z,966.69
2022-11-27T07:11:35.415Z,966.72
2022-11-27T07:12:35.244Z,966.66
2022-11-27T07:13:35.201Z,966.73
2022-11-27T07:14:35.380Z,966.69
2022-11-27T07:15:36.010Z,966.72
2022-11-27T07:16:35.254Z,966.68
2022-11-27T07:17:35.412Z,966.70
2022-11-27T07:18:35.131Z,966.71
2022-11-27T07:19:35.093Z,966.73
2022-11-27T07:20:35.121Z,966.72
2022-11-27T07:21:35.107Z,966.78
2022-11-27T07:22:35.062Z,966.80
2022-11-27T07:23:35.180Z,966.88
2022-11-27T07:24:35.039Z,966.83
2022-11-27T07:25:35.039Z,966.87
2022-11-27T07:26:35.028Z,966.88
2022-11-27T07:27:35.044Z,966.87
2022-11-27T07:28:34.992Z,966.84
2022-11-27T07:29:35.875Z,966.81
2022-11-27T07:30:34.949Z,966.79
2022-11-27T07:31:35.040Z,966.78
2022-11-27T07:32:34.949Z,966.83
2022-11-27T07:33:34.939Z,966.82
2022-11-27T07:34:34.912Z,966.78
2022-11-27T07:35:35.165Z,966.75
2022-11-27T07:36:34.870Z,966.73
2022-11-27T07:37:34.877Z,966.77
2022-11-27T07:38:34.873Z,966.72
2022-11-27T07:40:00.798Z,966.72
2022-11-27T07:40:36.933Z,966.70
2022-11-27T07:41:34.838Z,966.67
2022-11-27T07:42:39.075Z,966.67
2022-11-27T07:43:34.908Z,966.70
2022-11-27T07:44:34.788Z,966.70
2022-11-27T07:45:34.933Z,966.67
2022-11-27T07:46:35.070Z,966.65
2022-11-27T07:47:34.764Z,966.67
2022-11-27T07:48:34.720Z,966.67
2022-11-27T07:49:34.726Z,966.73
2022-11-27T07:50:34.725Z,966.72
2022-11-27T07:51:34.683Z,966.75
2022-11-27T07:52:40.779Z,966.71
2022-11-27T07:53:35.651Z,966.70
2022-11-27T07:54:34.615Z,966.70
2022-11-27T07:55:34.625Z,966.69
2022-11-27T07:56:34.632Z,966.64
2022-11-27T07:57:34.599Z,966.65
2022-11-27T07:58:34.679Z,966.60
2022-11-27T07:59:34.589Z,966.56
2022-11-27T08:00:34.537Z,966.53
2022-11-27T08:01:34.556Z,966.51
2022-11-27T08:02:34.529Z,966.56
2022-11-27T08:03:34.524Z,966.54
2022-11-27T08:04:34.700Z,966.61
2022-11-27T08:05:34.486Z,966.55
2022-11-27T08:06:34.467Z,966.57
2022-11-27T08:07:34.517Z,966.53
2022-11-27T08:08:34.449Z,966.53
2022-11-27T08:09:34.435Z,966.53
2022-11-27T08:10:34.634Z,966.46
2022-11-27T08:11:34.395Z,966.48
2022-11-27T08:12:34.359Z,966.53
2022-11-27T08:13:34.394Z,966.50
2022-11-27T08:14:34.369Z,966.51
2022-11-27T08:15:34.333Z,966.48
2022-11-27T08:16:34.536Z,966.50
2022-11-27T08:17:34.487Z,966.56
2022-11-27T08:18:34.289Z,966.52
2022-11-27T08:19:34.283Z,966.56
2022-11-27T08:20:34.317Z,966.56
2022-11-27T08:21:34.255Z,966.57
2022-11-27T08:22:34.906Z,966.56
2022-11-27T08:23:34.223Z,966.61
2022-11-27T08:24:34.196Z,966.68
2022-11-27T08:25:34.776Z,966.67
2022-11-27T08:26:34.405Z,966.67
2022-11-27T08:27:34.179Z,966.69
2022-11-27T08:28:34.284Z,966.64
2022-11-27T08:29:34.216Z,966.60
2022-11-27T08:30:34.128Z,966.56
2022-11-27T08:31:34.172Z,966.56
2022-11-27T08:32:34.255Z,966.56
2022-11-27T08:33:34.083Z,966.48
2022-11-27T08:34:34.293Z,966.47
2022-11-27T08:35:34.071Z,966.48
2022-11-27T08:36:34.037Z,966.40
2022-11-27T08:37:34.027Z,966.44
2022-11-27T08:38:34.032Z,966.38
2022-11-27T08:39:33.997Z,966.35
2022-11-27T08:40:34.113Z,966.34
2022-11-27T08:41:33.968Z,966.39
2022-11-27T08:42:33.942Z,966.37
2022-11-27T08:43:33.952Z,966.37
2022-11-27T08:44:33.932Z,966.43
2022-11-27T08:45:33.957Z,966.46
2022-11-27T08:46:34.171Z,966.48
2022-11-27T08:47:33.915Z,966.46
2022-11-27T08:48:33.876Z,966.43
2022-11-27T08:49:33.897Z,966.39
2022-11-27T08:50:33.858Z,966.36
2022-11-27T08:51:33.822Z,966.32
2022-11-27T08:52:34.024Z,966.30
2022-11-27T08:53:33.811Z,966.33
2022-11-27T08:54:33.771Z,966.29
2022-11-27T08:55:33.805Z,966.31
2022-11-27T08:56:33.778Z,966.25
2022-11-27T08:57:33.752Z,966.22
2022-11-27T08:58:33.924Z,966.17
2022-11-27T08:59:33.733Z,966.19
2022-11-27T09:00:33.808Z,966.22
2022-11-27T09:01:33.768Z,966.27
2022-11-27T09:02:33.692Z,966.31
2022-11-27T09:03:33.725Z,966.27
2022-11-27T09:04:33.855Z,966.28
2022-11-27T09:05:33.642Z,966.31
2022-11-27T09:06:33.590Z,966.27
2022-11-27T09:07:33.644Z,966.35
2022-11-27T09:08:33.617Z,966.38
2022-11-27T09:09:33.572Z,966.38
2022-11-27T09:10:33.623Z,966.37
2022-11-27T09:11:33.540Z,966.31
2022-11-27T09:12:33.513Z,966.30
2022-11-27T09:13:33.511Z,966.28
2022-11-27T09:14:33.556Z,966.24
2022-11-27T09:15:33.491Z,966.22
2022-11-27T09:16:33.689Z,966.20
2022-11-27T09:17:33.530Z,966.27
2022-11-27T09:18:33.429Z,966.26
2022-11-27T09:19:33.445Z,966.39
2022-11-27T09:20:33.430Z,966.36
2022-11-27T09:21:33.403Z,966.38
2022-11-27T09:22:33.508Z,966.38
2022-11-27T09:23:33.394Z,966.39
2022-11-27T09:24:33.344Z,966.37
2022-11-27T09:25:33.349Z,966.36
2022-11-27T09:26:33.464Z,966.34
2022-11-27T09:27:33.326Z,966.31
2022-11-27T09:28:33.368Z,966.32
2022-11-27T09:29:33.283Z,966.32
2022-11-27T09:30:33.247Z,966.34
2022-11-27T09:31:33.333Z,966.37
2022-11-27T09:32:33.986Z,966.35
2022-11-27T09:33:33.240Z,966.33
2022-11-27T09:34:37.513Z,966.30
2022-11-27T09:35:33.241Z,966.27
2022-11-27T09:36:33.164Z,966.24
2022-11-27T09:37:33.236Z,966.19
2022-11-27T09:38:33.181Z,966.17
2022-11-27T09:39:33.157Z,966.15
2022-11-27T09:40:33.493Z,966.11
2022-11-27T09:41:33.128Z,966.03
2022-11-27T09:42:33.078Z,966.00
2022-11-27T09:43:33.101Z,966.06
2022-11-27T09:44:33.093Z,966.06
2022-11-27T09:45:33.146Z,966.00
2022-11-27T09:46:33.322Z,965.95
2022-11-27T09:47:36.065Z,965.92
2022-11-27T09:48:34.003Z,965.89
2022-11-27T09:49:33.066Z,965.85
2022-11-27T09:50:33.005Z,965.83
2022-11-27T09:51:33.002Z,965.89
2022-11-27T09:52:33.178Z,965.85
2022-11-27T09:53:32.952Z,965.81
2022-11-27T09:54:32.926Z,965.82
2022-11-27T09:55:32.945Z,965.84
2022-11-27T09:56:32.958Z,965.86
2022-11-27T09:57:32.905Z,965.88
2022-11-27T09:58:33.006Z,965.81
2022-11-27T09:59:32.869Z,965.75
2022-11-27T10:00:32.827Z,965.75
2022-11-27T10:01:42.073Z,965.71
2022-11-27T10:02:34.632Z,965.72
2022-11-27T10:03:32.894Z,965.72
2022-11-27T10:04:50.936Z,965.69
2022-11-27T10:05:33.800Z,965.70
2022-11-27T10:06:32.757Z,965.65
2022-11-27T10:07:32.802Z,965.70
2022-11-27T10:08:32.928Z,965.69
2022-11-27T10:09:32.722Z,965.59
2022-11-27T10:10:32.852Z,965.60
2022-11-27T10:11:32.721Z,965.54
2022-11-27T10:12:32.669Z,965.53
2022-11-27T10:13:32.668Z,965.53
2022-11-27T10:14:32.664Z,965.54
2022-11-27T10:15:32.648Z,965.49
2022-11-27T10:16:32.774Z,965.47
2022-11-27T10:17:32.673Z,965.46
2022-11-27T10:18:32.664Z,965.52
2022-11-27T10:19:32.609Z,965.47
2022-11-27T10:20:32.601Z,965.52
2022-11-27T10:21:32.563Z,965.56
2022-11-27T10:22:32.684Z,965.49
2022-11-27T10:23:32.532Z,965.53
2022-11-27T10:24:32.518Z,965.46
2022-11-27T10:25:32.540Z,965.47
2022-11-27T10:26:32.518Z,965.46
2022-11-27T10:27:32.469Z,965.45
2022-11-27T10:28:32.592Z,965.38
2022-11-27T10:29:32.459Z,965.40
2022-11-27T10:30:32.476Z,965.37
2022-11-27T10:31:32.485Z,965.34
2022-11-27T10:32:54.670Z,965.36
2022-11-27T10:33:33.550Z,965.34
2022-11-27T10:34:32.355Z,965.34
2022-11-27T10:35:32.370Z,965.31
2022-11-27T10:36:32.326Z,965.30
2022-11-27T10:37:32.349Z,965.31
2022-11-27T10:38:32.351Z,965.23
2022-11-27T10:39:32.445Z,965.21
2022-11-27T10:40:32.268Z,965.15
2022-11-27T10:41:48.802Z,965.10
2022-11-27T10:42:33.250Z,965.11
2022-11-27T10:43:32.253Z,965.10
2022-11-27T10:44:32.250Z,965.03
2022-11-27T10:45:32.471Z,965.07
2022-11-27T10:46:32.189Z,965.03
2022-11-27T10:47:33.825Z,965.04
2022-11-27T10:48:32.154Z,965.04
2022-11-27T10:49:32.163Z,965.06
2022-11-27T10:50:32.173Z,965.08
2022-11-27T10:51:32.432Z,965.10
2022-11-27T10:52:32.110Z,965.10
2022-11-27T10:53:32.112Z,965.09
2022-11-27T10:54:32.080Z,965.09
2022-11-27T10:55:32.083Z,965.11
2022-11-27T10:56:32.074Z,965.10
2022-11-27T10:57:32.284Z,965.11
2022-11-27T10:58:32.021Z,965.09
2022-11-27T10:59:34.696Z,965.11
2022-11-27T11:00:32.009Z,965.04
2022-11-27T11:01:32.023Z,965.08
2022-11-27T11:02:32.137Z,965.11
2022-11-27T11:03:32.136Z,965.12
2022-11-27T11:04:37.924Z,965.03
2022-11-27T11:05:45.566Z,965.01
2022-11-27T11:06:32.903Z,964.94
2022-11-27T11:07:31.957Z,964.91
2022-11-27T11:08:31.928Z,964.85
2022-11-27T11:09:32.026Z,964.87
2022-11-27T11:10:31.867Z,964.84
2022-11-27T11:11:31.869Z,964.85
2022-11-27T11:12:31.824Z,964.80
2022-11-27T11:13:31.827Z,964.81
2022-11-27T11:14:31.815Z,964.72
2022-11-27T11:15:31.905Z,964.73
2022-11-27T11:16:35.229Z,964.68
2022-11-27T11:17:31.986Z,964.69
2022-11-27T11:18:31.732Z,964.67
2022-11-27T11:19:31.748Z,964.66
2022-11-27T11:20:31.764Z,964.63
2022-11-27T11:21:31.811Z,964.61
2022-11-27T11:22:31.684Z,964.57
2022-11-27T11:23:31.695Z,964.59
2022-11-27T11:24:31.665Z,964.53
2022-11-27T11:25:31.664Z,964.50
2022-11-27T11:26:31.673Z,964.45
2022-11-27T11:27:31.715Z,964.51
2022-11-27T11:28:36.496Z,964.47
2022-11-27T11:29:32.611Z,964.48
2022-11-27T11:30:31.734Z,964.43
2022-11-27T11:31:31.633Z,964.43
2022-11-27T11:32:31.706Z,964.45
2022-11-27T11:33:31.584Z,964.44
2022-11-27T11:34:31.556Z,964.47
2022-11-27T11:35:31.517Z,964.45
2022-11-27T11:36:31.577Z,964.49
2022-11-27T11:37:31.472Z,964.49
2022-11-27T11:38:31.660Z,964.43
2022-11-27T11:39:31.478Z,964.43
2022-11-27T11:40:31.466Z,964.41
2022-11-27T11:41:31.414Z,964.36
2022-11-27T11:42:31.585Z,964.36
2022-11-27T11:43:31.387Z,964.28
2022-11-27T11:44:31.440Z,964.24
2022-11-27T11:45:32.944Z,964.17
2022-11-27T11:46:31.439Z,964.18
2022-11-27T11:47:31.342Z,964.15
2022-11-27T11:48:31.500Z,964.14
2022-11-27T11:49:31.328Z,964.09
2022-11-27T11:50:31.367Z,964.08
2022-11-27T11:51:31.284Z,964.11
2022-11-27T11:52:31.306Z,964.07
2022-11-27T11:53:31.252Z,964.09
2022-11-27T11:54:31.414Z,964.07
2022-11-27T11:55:31.217Z,964.06
2022-11-27T11:56:31.279Z,964.05
2022-11-27T11:57:31.200Z,964.06
2022-11-27T11:58:31.207Z,964.06
2022-11-27T11:59:31.164Z,963.99
2022-11-27T12:00:38.723Z,963.97
2022-11-27T12:01:32.201Z,963.94
2022-11-27T12:02:31.190Z,963.90
2022-11-27T12:03:31.123Z,963.91
2022-11-27T12:04:31.190Z,963.96
2022-11-27T12:05:31.096Z,963.93
2022-11-27T12:06:31.238Z,963.97
2022-11-27T12:07:31.122Z,963.90
2022-11-27T12:08:31.079Z,963.97
2022-11-27T12:09:31.033Z,964.00
2022-11-27T12:10:31.038Z,963.95
2022-11-27T12:11:31.026Z,963.92
2022-11-27T12:12:31.156Z,963.89
2022-11-27T12:13:33.365Z,963.86
2022-11-27T12:14:31.089Z,963.80
2022-11-27T12:15:30.938Z,963.82
2022-11-27T12:16:30.968Z,963.77
2022-11-27T12:17:30.919Z,963.77
2022-11-27T12:18:31.139Z,963.75
2022-11-27T12:19:30.966Z,963.77
2022-11-27T12:20:30.913Z,963.79
2022-11-27T12:21:30.872Z,963.78
2022-11-27T12:22:30.873Z,963.81
2022-11-27T12:23:30.827Z,963.77
2022-11-27T12:24:30.909Z,963.72
2022-11-27T12:25:30.857Z,963.65
2022-11-27T12:26:31.513Z,963.62
2022-11-27T12:27:30.805Z,963.63
2022-11-27T12:28:30.819Z,963.58